Time;durP1;ratioP1;P1;durP2;ratioP2;P2;SDS_P1;SDS_P2;PMS_P1;PMS_P2;Temp;Humidity;BMP_temperature;BMP_pressure;BME280_temperature;BME280_humidity;BME280_pressure;Samples;Min_cycle;Max_cycle;Signal;HPM_P1;HPM_P2
2021/08/18 00:01:20;;;;;;;4.50;1.42;;;15.40;97.70;;;;;;4995859;28;20335;-78
2021/08/18 00:03:46;;;;;;;3.35;1.23;;;15.50;97.70;;;;;;5028042;28;20500;-78
2021/08/18 00:06:12;;;;;;;9.20;1.88;;;15.50;97.60;;;;;;5030156;28;20041;-79
2021/08/18 00:08:41;;;;;;;5.05;1.63;;;15.50;97.60;;;;;;5028731;28;20044;-78
2021/08/18 00:11:07;;;;;;;3.00;1.20;;;15.60;97.70;;;;;;5030025;28;20036;-78
2021/08/18 00:13:33;;;;;;;4.90;1.50;;;15.60;97.60;;;;;;5012444;28;20029;-78
2021/08/18 00:15:59;;;;;;;3.60;1.25;;;15.60;97.60;;;;;;5028516;28;20078;-78
2021/08/18 00:18:25;;;;;;;5.43;1.60;;;15.60;97.60;;;;;;5028489;28;20150;-79
2021/08/18 00:20:52;;;;;;;4.65;1.60;;;15.60;97.50;;;;;;5028547;28;20120;-78
2021/08/18 00:23:18;;;;;;;4.43;1.42;;;15.60;97.50;;;;;;5028629;28;20044;-78
2021/08/18 00:25:43;;;;;;;7.72;2.85;;;15.70;97.50;;;;;;5011996;28;20460;-77
2021/08/18 00:28:09;;;;;;;5.10;1.80;;;15.70;97.40;;;;;;4995688;28;20439;-78
2021/08/18 00:30:35;;;;;;;5.88;2.15;;;15.60;97.40;;;;;;4995657;28;20032;-78
2021/08/18 00:33:01;;;;;;;4.85;1.80;;;15.60;97.40;;;;;;5028310;28;20120;-78
2021/08/18 00:35:27;;;;;;;5.65;1.70;;;15.60;97.60;;;;;;5028053;28;20032;-79
2021/08/18 00:37:53;;;;;;;5.97;1.65;;;15.60;97.30;;;;;;5027996;28;20029;-77
2021/08/18 00:40:19;;;;;;;5.30;1.58;;;15.60;97.50;;;;;;5011705;28;20038;-79
2021/08/18 00:42:46;;;;;;;4.55;1.48;;;15.60;97.20;;;;;;5028138;28;20037;-80
2021/08/18 00:45:17;;;;;;;4.78;2.00;;;15.60;97.20;;;;;;5028144;28;20124;-79
2021/08/18 00:47:48;;;;;;;4.38;1.45;;;15.60;97.20;;;;;;5028017;28;20057;-79
2021/08/18 00:50:20;;;;;;;3.47;1.23;;;15.60;97.20;;;;;;5027926;28;20037;-78
2021/08/18 00:52:47;;;;;;;3.25;1.30;;;15.60;97.20;;;;;;5029204;28;20036;-78
2021/08/18 00:55:15;;;;;;;3.83;1.13;;;15.60;97.00;;;;;;5011471;28;20030;-79
2021/08/18 00:57:41;;;;;;;4.15;1.20;;;15.50;96.90;;;;;;5029005;28;20017;-78
2021/08/18 01:00:10;;;;;;;3.88;1.20;;;15.60;96.80;;;;;;5027783;28;20028;-77
2021/08/18 01:02:36;;;;;;;5.32;1.85;;;15.60;96.70;;;;;;5027728;28;20064;-80
2021/08/18 01:05:08;;;;;;;3.25;1.02;;;15.60;96.80;;;;;;5011176;28;20036;-79
2021/08/18 01:07:35;;;;;;;3.65;1.20;;;15.60;96.50;;;;;;5029018;28;20036;-78
2021/08/18 01:10:04;;;;;;;3.13;1.10;;;15.50;96.40;;;;;;5028821;28;20036;-78
2021/08/18 01:12:31;;;;;;;2.88;1.08;;;15.60;96.30;;;;;;5027604;28;20408;-79
2021/08/18 01:14:57;;;;;;;3.05;1.00;;;15.60;96.30;;;;;;5027091;28;20069;-78
2021/08/18 01:17:23;;;;;;;3.35;1.00;;;15.60;96.50;;;;;;5027626;28;20061;-80
2021/08/18 01:19:49;;;;;;;4.15;1.20;;;15.50;96.20;;;;;;5027423;28;20429;-78
2021/08/18 01:22:14;;;;;;;;;;;15.50;96.10;;;;;;5011347;28;20025;-77
2021/08/18 01:24:41;;;;;;;3.47;1.20;;;15.50;96.00;;;;;;5028681;28;19921;-79
2021/08/18 01:27:07;;;;;;;4.72;1.40;;;15.40;95.90;;;;;;5010892;28;20030;-77
2021/08/18 01:29:33;;;;;;;2.95;0.82;;;15.40;96.00;;;;;;5027136;28;20033;-80
2021/08/18 01:31:59;;;;;;;4.65;0.95;;;15.30;96.30;;;;;;5010758;28;20029;-78
2021/08/18 01:34:24;;;;;;;3.17;0.90;;;15.30;96.10;;;;;;5027309;28;20109;-79
2021/08/18 01:36:50;;;;;;;3.25;0.90;;;15.40;96.10;;;;;;4994261;28;20041;-78
2021/08/18 01:39:16;;;;;;;2.78;0.95;;;15.40;96.10;;;;;;5028268;28;20508;-79
2021/08/18 01:41:41;;;;;;;2.67;0.95;;;15.40;96.00;;;;;;5010618;28;20060;-79
2021/08/18 01:44:07;;;;;;;4.05;0.88;;;15.40;96.00;;;;;;5010676;28;20029;-77
2021/08/18 01:46:33;;;;;;;4.85;0.95;;;15.40;96.00;;;;;;5010572;28;20029;-80
2021/08/18 01:48:59;;;;;;;3.15;0.90;;;15.40;96.00;;;;;;5026928;28;20171;-78
2021/08/18 01:51:25;;;;;;;4.10;1.20;;;15.40;96.00;;;;;;5028172;28;20029;-79
2021/08/18 01:53:50;;;;;;;3.08;1.00;;;15.40;96.00;;;;;;5028016;28;20037;-77
2021/08/18 01:56:17;;;;;;;3.78;1.13;;;15.40;96.00;;;;;;5026677;28;20033;-77
2021/08/18 01:58:43;;;;;;;;;;;15.40;96.00;;;;;;5028442;28;20033;-78
2021/08/18 02:01:11;;;;;;;4.13;1.10;;;15.40;96.00;;;;;;5027895;28;19933;-78
2021/08/18 02:03:37;;;;;;;5.43;1.30;;;15.50;96.00;;;;;;5027917;28;20063;-77
2021/08/18 02:06:04;;;;;;;3.92;1.48;;;15.50;96.00;;;;;;5026748;28;20087;-78
2021/08/18 02:08:30;;;;;;;4.53;1.20;;;15.50;96.10;;;;;;5027801;28;20036;-76
2021/08/18 02:10:55;;;;;;;4.82;1.40;;;15.50;96.10;;;;;;5027840;28;20026;-76
2021/08/18 02:13:21;;;;;;;7.40;1.70;;;15.40;96.10;;;;;;5009930;28;20084;-78
2021/08/18 02:15:47;;;;;;;4.85;1.45;;;15.40;96.20;;;;;;5025975;28;20115;-78
2021/08/18 02:18:15;;;;;;;4.95;1.25;;;15.40;96.30;;;;;;5026425;28;20488;-79
2021/08/18 02:20:44;;;;;;;5.43;1.75;;;15.40;96.60;;;;;;5026391;28;20033;-75
2021/08/18 02:23:10;;;;;;;5.47;1.55;;;15.40;96.40;;;;;;5026278;28;20496;-77
2021/08/18 02:25:37;;;;;;;4.38;1.60;;;15.40;96.40;;;;;;5025775;28;20033;-78
2021/08/18 02:28:06;;;;;;;7.65;1.90;;;15.40;96.50;;;;;;5026300;28;20130;-78
2021/08/18 02:30:33;;;;;;;3.70;1.50;;;15.40;96.50;;;;;;5026453;28;20025;-77
2021/08/18 02:32:58;;;;;;;;;;;15.40;96.50;;;;;;5026665;28;20667;-78
2021/08/18 02:35:25;;;;;;;4.85;1.35;;;15.40;96.80;;;;;;5027608;28;19905;-78
2021/08/18 02:37:53;;;;;;;8.10;1.73;;;15.30;96.40;;;;;;5027465;28;20033;-77
2021/08/18 02:40:20;;;;;;;3.97;1.30;;;15.30;96.50;;;;;;5026207;28;20030;-77
2021/08/18 02:42:51;;;;;;;4.65;1.20;;;15.30;96.60;;;;;;5026312;28;20049;-77
2021/08/18 02:45:17;;;;;;;5.13;1.20;;;15.30;96.70;;;;;;5027562;28;20021;-76
2021/08/18 02:47:43;;;;;;;4.72;1.50;;;15.30;96.70;;;;;;5027566;28;20456;-78
2021/08/18 02:50:11;;;;;;;5.28;1.13;;;15.30;96.90;;;;;;4993350;28;20068;-78
2021/08/18 02:52:37;;;;;;;3.95;1.17;;;15.20;96.70;;;;;;5027392;28;20033;-77
2021/08/18 02:55:04;;;;;;;4.97;1.20;;;15.20;96.80;;;;;;5010024;28;20408;-76
2021/08/18 02:57:29;;;;;;;3.63;1.33;;;15.20;96.80;;;;;;5027298;28;20037;-77
2021/08/18 02:59:56;;;;;;;4.43;1.20;;;15.20;96.80;;;;;;5009502;28;20491;-77
2021/08/18 03:02:24;;;;;;;5.13;1.30;;;15.20;96.80;;;;;;5027375;28;20025;-77
2021/08/18 03:04:49;;;;;;;5.85;1.55;;;15.20;96.80;;;;;;5027170;28;20021;-78
2021/08/18 03:07:15;;;;;;;3.83;1.27;;;15.10;96.90;;;;;;5009708;28;20090;-77
2021/08/18 03:09:41;;;;;;;4.18;1.30;;;15.10;96.90;;;;;;5026134;28;20034;-78
2021/08/18 03:12:07;;;;;;;5.18;1.52;;;15.00;97.00;;;;;;5009642;28;20492;-77
2021/08/18 03:14:33;;;;;;;;;;;15.00;97.10;;;;;;5009937;28;20617;-77
2021/08/18 03:16:58;;;;;;;5.57;1.52;;;15.00;97.30;;;;;;5025689;28;20045;-78
2021/08/18 03:19:24;;;;;;;4.40;1.38;;;15.00;97.20;;;;;;5027088;28;20025;-81
2021/08/18 03:21:50;;;;;;;4.05;1.48;;;14.90;97.30;;;;;;5009726;28;20041;-77
2021/08/18 03:24:16;;;;;;;3.92;1.17;;;14.90;97.40;;;;;;5025857;28;20022;-77
2021/08/18 03:26:42;;;;;;;4.47;1.70;;;14.90;97.50;;;;;;5027316;28;20036;-78
2021/08/18 03:29:08;;;;;;;5.63;1.33;;;14.90;97.60;;;;;;5025765;28;20054;-77
2021/08/18 03:31:34;;;;;;;4.18;1.08;;;14.90;97.60;;;;;;5026979;28;20036;-77
2021/08/18 03:33:59;;;;;;;6.90;1.65;;;14.90;97.70;;;;;;5009349;28;20038;-79
2021/08/18 03:36:25;;;;;;;7.97;1.55;;;14.80;97.70;;;;;;4993997;28;20030;-77
2021/08/18 03:38:51;;;;;;;4.35;1.45;;;14.80;97.80;;;;;;5013010;28;20087;-78
2021/08/18 03:41:17;;;;;;;4.82;1.35;;;14.80;97.80;;;;;;5012946;28;20033;-77
2021/08/18 03:43:42;;;;;;;5.53;1.30;;;14.80;97.90;;;;;;5030710;28;20117;-76
2021/08/18 03:46:09;;;;;;;4.32;1.30;;;14.80;98.00;;;;;;5029304;28;20121;-77
2021/08/18 03:48:35;;;;;;;3.97;1.25;;;14.70;98.00;;;;;;5030400;28;20091;-79
2021/08/18 03:51:00;;;;;;;7.07;1.48;;;14.70;98.10;;;;;;5012607;28;20030;-77
2021/08/18 03:53:26;;;;;;;5.30;1.98;;;14.70;98.20;;;;;;5030458;28;20052;-76
2021/08/18 03:55:52;;;;;;;6.95;1.23;;;14.70;98.30;;;;;;4996306;28;20041;-77
2021/08/18 03:58:17;;;;;;;8.43;1.60;;;14.70;98.30;;;;;;5028821;28;20040;-77
2021/08/18 04:00:43;;;;;;;5.03;1.52;;;14.70;98.30;;;;;;5028854;28;20112;-77
2021/08/18 04:03:09;;;;;;;6.53;1.63;;;14.70;98.30;;;;;;5028928;28;20029;-77
2021/08/18 04:05:35;;;;;;;3.95;1.42;;;14.70;98.30;;;;;;5029037;28;20102;-80
2021/08/18 04:08:01;;;;;;;4.43;1.45;;;14.70;98.40;;;;;;5028885;28;20044;-76
2021/08/18 04:10:27;;;;;;;6.70;1.65;;;14.70;98.40;;;;;;5030190;28;20052;-77
2021/08/18 04:12:58;;;;;;;5.45;1.45;;;14.70;98.50;;;;;;5012193;28;20078;-79
2021/08/18 04:15:26;;;;;;;6.18;1.90;;;14.70;98.50;;;;;;5029946;28;20057;-77
2021/08/18 04:17:52;;;;;;;5.05;1.90;;;14.70;98.40;;;;;;5012287;28;20116;-77
2021/08/18 04:20:18;;;;;;;5.60;1.60;;;14.70;98.40;;;;;;5029858;28;20429;-78
2021/08/18 04:22:46;;;;;;;7.22;1.60;;;14.70;98.50;;;;;;5029835;28;20057;-78
2021/08/18 04:25:14;;;;;;;6.35;1.90;;;14.70;98.50;;;;;;5028518;28;20479;-77
2021/08/18 04:27:40;;;;;;;5.28;1.80;;;14.70;98.40;;;;;;5029682;28;20479;-77
2021/08/18 04:30:08;;;;;;;4.85;1.38;;;14.70;98.40;;;;;;5028363;28;20172;-77
2021/08/18 04:32:35;;;;;;;5.40;1.50;;;14.70;98.50;;;;;;5028327;28;20038;-77
2021/08/18 04:35:01;;;;;;;6.20;1.70;;;14.70;98.40;;;;;;5028316;28;20025;-78
2021/08/18 04:37:27;;;;;;;4.22;1.52;;;14.70;98.40;;;;;;5027961;28;20036;-75
2021/08/18 04:39:53;;;;;;;6.65;1.65;;;14.70;98.40;;;;;;5029367;28;20025;-78
2021/08/18 04:42:19;;;;;;;4.97;1.70;;;14.70;98.30;;;;;;5011585;28;20037;-78
2021/08/18 04:44:44;;;;;;;6.13;1.50;;;14.70;98.30;;;;;;5028404;28;20515;-78
2021/08/18 04:47:10;;;;;;;5.65;1.80;;;14.70;98.30;;;;;;5011566;28;20060;-78
2021/08/18 04:49:36;;;;;;;7.15;1.67;;;14.70;98.30;;;;;;5027514;28;20057;-78
2021/08/18 04:52:02;;;;;;;7.53;2.00;;;14.70;98.20;;;;;;5027901;28;20040;-78
2021/08/18 04:54:27;;;;;;;5.80;2.17;;;14.60;98.20;;;;;;5011700;28;20116;-77
2021/08/18 04:56:53;;;;;;;6.60;1.50;;;14.70;98.20;;;;;;5027694;28;20037;-78
2021/08/18 04:59:19;;;;;;;8.07;1.67;;;14.60;98.20;;;;;;5011576;28;20040;-77
2021/08/18 05:01:44;;;;;;;9.05;2.15;;;14.70;98.20;;;;;;5027991;28;20392;-78
2021/08/18 05:04:10;;;;;;;6.63;1.95;;;14.70;98.10;;;;;;5027905;28;20030;-77
2021/08/18 05:06:36;;;;;;;10.45;1.95;;;14.70;98.10;;;;;;5011323;28;20037;-77
2021/08/18 05:09:02;;;;;;;6.47;2.17;;;14.70;98.00;;;;;;5027653;28;20056;-76
2021/08/18 05:11:28;;;;;;;6.18;1.80;;;14.70;98.10;;;;;;5011301;28;20256;-77
2021/08/18 05:13:54;;;;;;;7.05;2.15;;;14.70;98.10;;;;;;5027476;28;20026;-77
2021/08/18 05:16:19;;;;;;;7.15;1.90;;;14.70;98.00;;;;;;4994324;28;20217;-78
2021/08/18 05:18:45;;;;;;;5.07;1.63;;;14.80;98.00;;;;;;5028855;28;20037;-77
2021/08/18 05:21:11;;;;;;;7.43;2.58;;;14.80;97.90;;;;;;5027330;28;20494;-78
2021/08/18 05:23:37;;;;;;;5.97;2.03;;;14.80;97.90;;;;;;5027344;28;20045;-78
2021/08/18 05:26:03;;;;;;;5.90;1.80;;;14.80;97.90;;;;;;5027178;28;20448;-77
2021/08/18 05:28:28;;;;;;;7.88;2.85;;;14.80;97.80;;;;;;5027052;28;20040;-78
2021/08/18 05:30:54;;;;;;;5.97;1.83;;;14.90;97.80;;;;;;4994800;28;20030;-78
2021/08/18 05:33:20;;;;;;;6.85;1.92;;;14.90;97.80;;;;;;5027257;28;20075;-78
2021/08/18 05:35:46;;;;;;;13.02;2.92;;;14.90;97.70;;;;;;5026959;28;20088;-78
2021/08/18 05:38:11;;;;;;;6.30;1.90;;;14.90;97.70;;;;;;5026977;28;20034;-77
2021/08/18 05:40:37;;;;;;;8.50;2.10;;;14.90;97.70;;;;;;5027019;28;20055;-78
2021/08/18 05:43:03;;;;;;;9.13;2.25;;;14.90;97.70;;;;;;5010488;28;20087;-78
2021/08/18 05:45:28;;;;;;;8.15;2.85;;;14.90;97.80;;;;;;5026949;28;20043;-78
2021/08/18 05:47:54;;;;;;;8.77;2.20;;;14.90;97.70;;;;;;5010343;28;20057;-78
2021/08/18 05:50:20;;;;;;;9.40;2.97;;;14.90;97.70;;;;;;5026889;28;20036;-77
2021/08/18 05:52:45;;;;;;;8.35;2.80;;;14.90;97.70;;;;;;5027116;28;20441;-78
2021/08/18 05:55:11;;;;;;;7.80;2.35;;;14.90;97.70;;;;;;5026889;28;20029;-77
2021/08/18 05:57:37;;;;;;;8.10;2.83;;;14.90;97.70;;;;;;5026382;28;20068;-76
2021/08/18 06:00:05;;;;;;;7.60;3.22;;;14.90;97.70;;;;;;5027107;28;20026;-77
2021/08/18 06:02:30;;;;;;;15.02;3.72;;;14.90;97.70;;;;;;5010527;28;20030;-76
2021/08/18 06:04:56;;;;;;;9.02;2.65;;;14.90;97.70;;;;;;5027974;28;20487;-78
2021/08/18 06:07:22;;;;;;;13.05;3.05;;;15.00;97.80;;;;;;5010186;28;20041;-78
2021/08/18 06:09:47;;;;;;;11.10;3.00;;;15.00;97.80;;;;;;5010043;28;20052;-78
2021/08/18 06:12:13;;;;;;;9.45;3.28;;;15.00;97.90;;;;;;5026382;28;20045;-77
2021/08/18 06:14:39;;;;;;;10.23;4.03;;;15.00;97.90;;;;;;4993553;28;20029;-77
2021/08/18 06:17:05;;;;;;;14.48;3.67;;;15.10;97.80;;;;;;5026278;28;20423;-78
2021/08/18 06:19:30;;;;;;;9.52;3.08;;;15.10;97.80;;;;;;4993725;28;20411;-78
2021/08/18 06:21:59;;;;;;;9.68;3.17;;;15.10;97.90;;;;;;4993674;28;20033;-78
2021/08/18 06:24:41;;;;;;;8.30;2.90;;;15.10;97.90;;;;;;5026410;28;20091;-77
2021/08/18 06:27:08;;;;;;;7.32;2.90;;;15.10;97.90;;;;;;5027386;28;20025;-77
2021/08/18 06:29:34;;;;;;;7.32;2.65;;;15.10;98.00;;;;;;5026273;28;20107;-76
2021/08/18 06:32:02;;;;;;;11.35;3.45;;;15.10;98.10;;;;;;5026153;28;20033;-77
2021/08/18 06:34:28;;;;;;;9.48;2.88;;;15.10;98.00;;;;;;5026217;28;20038;-77
2021/08/18 06:36:54;;;;;;;12.00;3.42;;;15.10;98.10;;;;;;5026060;28;20087;-77
2021/08/18 06:39:19;;;;;;;9.30;2.97;;;15.10;98.10;;;;;;5009637;28;20034;-78
2021/08/18 06:41:45;;;;;;;10.10;2.97;;;15.20;98.10;;;;;;5010122;28;20495;-77
2021/08/18 06:44:10;;;;;;;7.70;3.15;;;15.20;98.20;;;;;;5009748;28;20111;-78
2021/08/18 06:46:36;;;;;;;7.85;2.83;;;15.20;98.20;;;;;;5027342;28;20033;-78
2021/08/18 06:49:02;;;;;;;9.27;3.30;;;15.30;98.20;;;;;;5027496;28;20037;-77
2021/08/18 06:51:28;;;;;;;9.13;3.05;;;15.30;98.30;;;;;;4993279;28;20132;-78
2021/08/18 06:53:54;;;;;;;;;;;15.30;98.30;;;;;;5026242;28;20037;-77
2021/08/18 06:56:19;;;;;;;9.57;2.67;;;15.40;98.30;;;;;;5025663;28;19921;-79
2021/08/18 06:58:45;;;;;;;9.27;3.28;;;15.40;98.20;;;;;;5025564;28;20084;-76
2021/08/18 07:01:11;;;;;;;6.45;2.53;;;15.40;98.40;;;;;;5027347;28;20386;-77
2021/08/18 07:03:36;;;;;;;9.48;3.03;;;15.40;98.40;;;;;;5009642;28;20425;-78
2021/08/18 07:06:02;;;;;;;7.80;2.75;;;15.40;98.40;;;;;;5026090;28;20033;-77
2021/08/18 07:08:28;;;;;;;7.10;2.70;;;15.40;98.60;;;;;;5025600;28;20033;-77
2021/08/18 07:10:53;;;;;;;6.72;2.80;;;15.40;98.40;;;;;;5026930;28;20066;-78
2021/08/18 07:13:20;;;;;;;7.97;3.05;;;15.40;98.50;;;;;;5029864;28;20040;-77
2021/08/18 07:15:46;;;;;;;6.90;3.17;;;15.40;98.70;;;;;;5029250;28;20066;-78
2021/08/18 07:18:12;;;;;;;6.80;2.80;;;15.40;98.80;;;;;;5030409;28;20099;-77
2021/08/18 07:20:38;;;;;;;8.55;3.35;;;15.40;98.80;;;;;;5013195;28;20435;-78
2021/08/18 07:23:04;;;;;;;9.32;2.95;;;15.50;98.80;;;;;;4996831;28;20159;-77
2021/08/18 07:25:29;;;;;;;;;;;15.60;98.90;;;;;;5013663;28;20514;-77
2021/08/18 07:27:55;;;;;;;8.25;3.55;;;15.60;98.90;;;;;;5032979;28;19992;-78
2021/08/18 07:30:21;;;;;;;7.50;3.42;;;15.70;98.80;;;;;;5032771;28;20044;-77
2021/08/18 07:32:47;;;;;;;9.38;4.15;;;15.70;98.70;;;;;;5032768;28;20534;-76
2021/08/18 07:35:13;;;;;;;9.68;3.42;;;15.80;98.80;;;;;;5032901;28;20104;-78
2021/08/18 07:37:38;;;;;;;;;;;15.80;98.80;;;;;;5015158;28;20041;-77
2021/08/18 07:40:05;;;;;;;9.70;4.22;;;15.80;98.70;;;;;;5014981;28;20442;-78
2021/08/18 07:42:31;;;;;;;8.48;4.50;;;15.80;98.60;;;;;;5031176;28;20030;-79
2021/08/18 07:44:57;;;;;;;10.35;4.07;;;15.80;98.60;;;;;;5032156;28;20048;-80
2021/08/18 07:47:23;;;;;;;8.50;3.78;;;15.80;98.70;;;;;;5030581;28;20034;-77
2021/08/18 07:49:49;;;;;;;7.82;3.78;;;15.80;98.70;;;;;;5032276;28;20021;-79
2021/08/18 07:52:15;;;;;;;7.75;3.50;;;15.80;98.80;;;;;;5031003;28;20160;-78
2021/08/18 07:54:41;;;;;;;8.25;2.55;;;15.80;98.80;;;;;;5031984;28;20033;-79
2021/08/18 07:57:07;;;;;;;7.13;3.10;;;15.80;98.90;;;;;;4997547;28;20029;-78
2021/08/18 07:59:33;;;;;;;;;;;15.90;98.90;;;;;;5031978;28;20539;-76
2021/08/18 08:01:59;;;;;;;7.43;2.03;;;15.90;98.90;;;;;;5013810;28;20001;-77
2021/08/18 08:04:26;;;;;;;7.90;2.88;;;15.90;98.80;;;;;;5030343;28;20156;-79
2021/08/18 08:06:52;;;;;;;7.82;2.83;;;15.90;98.90;;;;;;5030714;28;20555;-80
2021/08/18 08:09:18;;;;;;;6.80;2.83;;;15.90;99.00;;;;;;5031900;28;20495;-80
2021/08/18 08:11:44;;;;;;;8.32;2.95;;;16.00;99.10;;;;;;5014468;28;20395;-80
2021/08/18 08:14:10;;;;;;;9.48;4.10;;;16.10;99.10;;;;;;5030892;28;20030;-79
2021/08/18 08:16:35;;;;;;;10.05;3.88;;;16.30;99.20;;;;;;5013737;28;20088;-78
2021/08/18 08:19:02;;;;;;;9.27;4.93;;;16.60;99.00;;;;;;5031117;28;20025;-79
2021/08/18 08:21:28;;;;;;;7.65;3.70;;;16.70;98.80;;;;;;4997505;28;20029;-79
2021/08/18 08:23:53;;;;;;;10.00;3.45;;;16.90;98.70;;;;;;5029074;28;20044;-81
2021/08/18 08:26:20;;;;;;;6.43;3.17;;;17.10;98.40;;;;;;5031321;28;20078;-77
2021/08/18 08:28:45;;;;;;;;;;;17.20;98.10;;;;;;5030306;28;20034;-78
2021/08/18 08:31:11;;;;;;;10.73;4.10;;;17.30;97.90;;;;;;5031375;28;19905;-79
2021/08/18 08:33:37;;;;;;;9.57;4.13;;;17.40;97.90;;;;;;5028414;28;20434;-81
2021/08/18 08:36:03;;;;;;;6.55;3.30;;;17.40;97.70;;;;;;5026428;28;20033;-78
2021/08/18 08:38:29;;;;;;;5.53;2.50;;;17.40;97.40;;;;;;5028126;28;20034;-78
2021/08/18 08:40:54;;;;;;;5.78;2.30;;;17.40;97.40;;;;;;5021153;28;20127;-79
2021/08/18 08:43:22;;;;;;;5.43;2.17;;;17.40;97.40;;;;;;5027972;28;20377;-79
2021/08/18 08:45:48;;;;;;;4.80;2.30;;;17.50;97.30;;;;;;5046087;28;20027;-79
2021/08/18 08:48:20;;;;;;;4.70;1.98;;;17.50;97.00;;;;;;5030317;28;20124;-79
2021/08/18 08:50:48;;;;;;;4.95;2.03;;;17.50;96.80;;;;;;5031758;28;20065;-80
2021/08/18 08:53:14;;;;;;;4.80;2.10;;;17.50;96.70;;;;;;5031653;28;20048;-81
2021/08/18 08:55:41;;;;;;;4.22;1.65;;;17.60;96.70;;;;;;5051130;28;20372;-80
2021/08/18 08:58:06;;;;;;;5.72;1.48;;;17.60;96.60;;;;;;5049916;28;20055;-80
2021/08/18 09:00:33;;;;;;;4.05;1.50;;;17.60;96.50;;;;;;5016969;28;20025;-79
2021/08/18 09:03:16;;;;;;;4.93;1.27;;;17.70;96.40;;;;;;5050909;28;20058;-81
2021/08/18 09:05:45;;;;;;;7.03;1.95;;;17.80;96.30;;;;;;5050878;28;20344;-78
2021/08/18 09:08:29;;;;;;;7.43;1.50;;;18.00;96.20;;;;;;5050014;28;20119;-79
2021/08/18 09:11:14;;;;;;;4.97;1.45;;;18.20;95.80;;;;;;5050512;28;20036;-78
2021/08/18 09:13:44;;;;;;;4.05;1.00;;;18.30;95.50;;;;;;5043516;28;20067;-79
2021/08/18 09:16:10;;;;;;;4.07;0.88;;;18.50;95.60;;;;;;5039006;28;20099;-80
2021/08/18 09:18:56;;;;;;;4.45;1.30;;;18.90;95.40;;;;;;5040073;28;20087;-79
2021/08/18 09:21:36;;;;;;;2.97;0.70;;;19.30;94.70;;;;;;5036182;28;20548;-79
2021/08/18 09:24:11;;;;;;;2.75;1.00;;;19.50;94.10;;;;;;5033495;28;20071;-79
2021/08/18 09:26:40;;;;;;;4.00;1.27;;;19.80;93.70;;;;;;5039701;28;20418;-78
2021/08/18 09:29:06;;;;;;;4.90;1.00;;;20.10;93.60;;;;;;5042824;28;20048;-77
2021/08/18 09:31:31;;;;;;;;;;;20.40;92.90;;;;;;5040686;28;20029;-80
2021/08/18 09:33:57;;;;;;;2.25;1.00;;;20.40;92.60;;;;;;5040481;28;19912;-80
2021/08/18 09:36:23;;;;;;;;;;;20.30;92.00;;;;;;5038779;28;20029;-81
2021/08/18 09:38:50;;;;;;;3.58;1.00;;;20.20;92.00;;;;;;5034533;28;20319;-78
2021/08/18 09:41:18;;;;;;;;;;;20.20;91.90;;;;;;5025761;28;20086;-77
2021/08/18 09:43:45;;;;;;;4.10;1.30;;;20.20;91.80;;;;;;5044698;28;19916;-79
2021/08/18 09:46:10;;;;;;;4.50;1.83;;;20.10;91.60;;;;;;5044879;28;20025;-78
2021/08/18 09:48:38;;;;;;;;;;;20.00;91.70;;;;;;5000383;28;20034;-80
2021/08/18 09:51:06;;;;;;;4.43;1.20;;;20.00;91.90;;;;;;5029796;28;19908;-81
2021/08/18 09:53:40;;;;;;;4.30;1.23;;;20.00;91.60;;;;;;5030230;28;20032;-79
2021/08/18 09:56:11;;;;;;;8.45;2.13;;;20.00;91.50;;;;;;5029309;28;20040;-81
2021/08/18 09:58:46;;;;;;;8.18;2.70;;;20.00;91.30;;;;;;5027921;28;20472;-78
2021/08/18 10:01:15;;;;;;;7.72;1.70;;;19.90;91.10;;;;;;5029471;28;20072;-79
2021/08/18 10:03:47;;;;;;;5.07;1.30;;;19.80;91.10;;;;;;5028132;28;20029;-79
2021/08/18 10:06:13;;;;;;;5.53;1.48;;;19.80;91.20;;;;;;5043683;28;20067;-82
2021/08/18 10:08:41;;;;;;;3.42;1.40;;;19.90;91.00;;;;;;5036872;28;20383;-78
2021/08/18 10:11:10;;;;;;;4.22;1.52;;;19.90;90.90;;;;;;5044478;28;20088;-79
2021/08/18 10:13:36;;;;;;;4.95;1.95;;;19.90;90.70;;;;;;5049195;28;20021;-81
2021/08/18 10:16:01;;;;;;;;;;;19.80;90.90;;;;;;5017346;28;20072;-78
2021/08/18 10:18:35;;;;;;;4.15;1.50;;;19.80;91.00;;;;;;5040188;28;20351;-77
2021/08/18 10:21:06;;;;;;;6.10;2.08;;;19.80;91.00;;;;;;5032965;28;20021;-78
2021/08/18 10:23:59;;;;;;;4.18;1.20;;;19.80;91.10;;;;;;5044091;28;20090;-79
2021/08/18 10:26:33;;;;;;;3.40;1.40;;;19.90;91.10;;;;;;5034903;28;20021;-78
2021/08/18 10:29:06;;;;;;;3.22;1.27;;;20.00;91.10;;;;;;5038886;28;20103;-80
2021/08/18 10:31:44;;;;;;;5.38;2.05;;;20.00;91.10;;;;;;5036220;28;20422;-81
2021/08/18 10:34:23;;;;;;;7.07;1.10;;;20.10;90.90;;;;;;5033273;28;20018;-78
2021/08/18 10:36:51;;;;;;;3.05;1.30;;;20.20;90.90;;;;;;5037683;28;20021;-80
2021/08/18 10:39:25;;;;;;;2.45;1.02;;;20.40;90.60;;;;;;5048104;28;20056;-80
2021/08/18 10:41:57;;;;;;;3.60;1.30;;;20.50;90.10;;;;;;5038297;28;20025;-80
2021/08/18 10:44:32;;;;;;;3.78;1.48;;;20.60;90.00;;;;;;5037537;28;20067;-79
2021/08/18 10:47:10;;;;;;;5.00;1.80;;;20.60;89.90;;;;;;5047015;28;20144;-78
2021/08/18 10:49:36;;;;;;;4.95;2.10;;;20.50;89.40;;;;;;5035649;28;20361;-79
2021/08/18 10:52:01;;;;;;;;;;;20.30;89.40;;;;;;5016333;28;20036;-77
2021/08/18 10:54:30;;;;;;;3.85;1.80;;;20.10;90.00;;;;;;5044299;28;19909;-77
2021/08/18 10:56:58;;;;;;;3.58;1.60;;;20.00;90.00;;;;;;5044804;28;20032;-78
2021/08/18 10:59:36;;;;;;;5.30;1.73;;;19.90;90.10;;;;;;5050364;28;20039;-81
2021/08/18 11:02:08;;;;;;;5.57;1.67;;;19.80;90.40;;;;;;5033722;28;20473;-79
2021/08/18 11:04:50;;;;;;;3.85;1.63;;;19.70;90.40;;;;;;5037410;28;20025;-76
2021/08/18 11:07:17;;;;;;;7.57;2.10;;;19.70;90.50;;;;;;5039645;28;20032;-81
2021/08/18 11:09:55;;;;;;;4.78;1.90;;;19.70;90.60;;;;;;5043335;28;20024;-80
2021/08/18 11:12:39;;;;;;;5.32;2.10;;;19.60;90.60;;;;;;5045860;28;20055;-77
2021/08/18 11:15:20;;;;;;;2.78;1.25;;;19.60;90.80;;;;;;5044525;28;20621;-76
2021/08/18 11:17:50;;;;;;;5.50;1.77;;;19.60;90.90;;;;;;5042417;28;20047;-77
2021/08/18 11:20:18;;;;;;;3.33;1.50;;;19.60;90.90;;;;;;5026216;28;20052;-77
2021/08/18 11:22:44;;;;;;;6.85;2.40;;;19.60;90.90;;;;;;5045409;28;20029;-79
2021/08/18 11:25:17;;;;;;;;;;;19.70;91.10;;;;;;5040451;28;20443;-76
2021/08/18 11:27:46;;;;;;;4.50;1.98;;;19.80;91.30;;;;;;5047116;28;19912;-78
2021/08/18 11:30:12;;;;;;;5.35;1.80;;;19.90;91.20;;;;;;5031669;28;20029;-77
2021/08/18 11:32:38;;;;;;;;;;;20.00;91.10;;;;;;5039985;28;20030;-78
2021/08/18 11:35:04;;;;;;;5.15;1.92;;;20.00;91.00;;;;;;5035605;28;19912;-79
2021/08/18 11:37:30;;;;;;;4.20;1.77;;;20.10;90.80;;;;;;5000960;28;20123;-80
2021/08/18 11:39:57;;;;;;;;;;;20.10;90.80;;;;;;5052158;28;20097;-79
2021/08/18 11:42:23;;;;;;;4.05;1.63;;;20.10;90.80;;;;;;5045204;28;19913;-78
2021/08/18 11:45:04;;;;;;;3.47;1.70;;;20.10;90.90;;;;;;5036195;28;20029;-81
2021/08/18 11:47:35;;;;;;;5.13;2.08;;;20.20;90.60;;;;;;5046693;28;20915;-78
2021/08/18 11:50:02;;;;;;;5.60;2.15;;;20.30;90.40;;;;;;5035243;28;20083;-81
2021/08/18 11:52:28;;;;;;;5.95;2.10;;;20.30;90.10;;;;;;5008025;28;20590;-78
2021/08/18 11:55:02;;;;;;;;;;;20.20;90.10;;;;;;5036454;28;20124;-79
2021/08/18 11:57:28;;;;;;;5.85;2.28;;;20.30;90.40;;;;;;5039487;28;19929;-79
2021/08/18 11:59:57;;;;;;;;;;;20.50;90.30;;;;;;5045654;28;20444;-80
2021/08/18 12:02:24;;;;;;;6.57;2.25;;;20.70;90.20;;;;;;5035647;28;19936;-76
2021/08/18 12:04:50;;;;;;;5.95;1.88;;;20.80;89.60;;;;;;5040481;28;20017;-77
2021/08/18 12:07:17;;;;;;;4.35;1.77;;;20.90;88.90;;;;;;5038549;28;20024;-77
2021/08/18 12:09:44;;;;;;;5.07;2.20;;;21.00;88.20;;;;;;5038151;28;20021;-78
2021/08/18 12:12:15;;;;;;;5.28;2.33;;;21.00;87.60;;;;;;5034161;28;20033;-76
2021/08/18 12:14:51;;;;;;;4.63;2.40;;;20.90;86.90;;;;;;5040060;28;20022;-75
2021/08/18 12:17:18;;;;;;;5.40;2.00;;;20.70;86.90;;;;;;5034740;28;20032;-80
2021/08/18 12:19:45;;;;;;;5.15;2.10;;;20.60;87.10;;;;;;5040350;28;20052;-79
2021/08/18 12:22:18;;;;;;;7.28;2.30;;;20.50;87.50;;;;;;5031164;28;20022;-76
2021/08/18 12:24:50;;;;;;;5.10;2.10;;;20.40;87.80;;;;;;5029316;28;20039;-79
2021/08/18 12:27:22;;;;;;;6.80;3.10;;;20.40;87.70;;;;;;5047612;28;20394;-79
2021/08/18 12:29:59;;;;;;;6.07;2.75;;;20.40;87.80;;;;;;5029720;28;20120;-71
2021/08/18 12:32:24;;;;;;;5.95;2.50;;;20.40;87.60;;;;;;5040806;28;20041;-79
2021/08/18 12:34:57;;;;;;;;;;;20.30;87.80;;;;;;5031286;28;20029;-81
2021/08/18 12:37:28;;;;;;;4.65;2.25;;;20.40;88.00;;;;;;5032232;28;19913;-77
2021/08/18 12:39:55;;;;;;;7.10;2.42;;;20.50;87.90;;;;;;5029689;28;20017;-77
2021/08/18 12:42:24;;;;;;;6.30;2.78;;;20.70;87.90;;;;;;5029371;28;20079;-77
2021/08/18 12:45:09;;;;;;;6.97;2.85;;;20.80;87.60;;;;;;5034289;28;20459;-79
2021/08/18 12:47:38;;;;;;;5.53;3.00;;;21.00;86.90;;;;;;5030469;28;20026;-77
2021/08/18 12:50:08;;;;;;;8.18;3.63;;;21.00;86.30;;;;;;5039223;28;20048;-76
2021/08/18 12:52:34;;;;;;;7.25;2.83;;;21.00;85.80;;;;;;5039232;28;20033;-80
2021/08/18 12:55:01;;;;;;;;;;;20.80;85.70;;;;;;5039037;28;20032;-78